Station History from Weather Underground


Station Historical Data
 
Daily Summary for September 19, 2019 Units:  English    Metric   Both
« Previous Day
Next Day »
Daily Weekly Monthly Yearly Custom
  Current: High: Low: Average:
Temperature: 84.7 °F 84.7 °F 59.3 °F 67.8 °F
Dew Point: 61 °F 63.5 °F 56.4 °F 59.4 °F
Humidity: 45% 91% 44% 77%
Wind Speed: 0mph 1mph 0mph 0mph
Wind Gust: 0mph 3mph - -
WindCalm - - West
Pressure: 29.92 in 29.97 in 29.88 in -
Precipitation: 0 in      
Historical Graphs
 
 
Tabular Data for September 19, 2019
Time Temperature Dew Point Pressure Wind Wind Speed Wind Gust Humidity Rainfall Rate (Hourly) solar Conditions
00:00 64 °F 59.1 °F 29.89 in Calm     84% 0 in 0.00 W/m2 RA
00:05 63.9 °F 59.3 °F 29.89 in Calm     85% 0 in 0.00 W/m2 RA
00:10 63.8 °F 59.2 °F 29.89 in Calm     85% 0 in 0.00 W/m2 CLR
00:15 63.7 °F 59.1 °F 29.89 in Calm     85% 0 in 0.00 W/m2 CLR
00:20 63.7 °F 59.1 °F 29.89 in Calm     85% 0 in 0.00 W/m2 CLR
00:25 63.6 °F 59 °F 29.89 in Calm     85% 0 in 0.00 W/m2 CLR
00:30 63.4 °F 58.9 °F 29.89 in Calm     85% 0 in 0.00 W/m2 CLR
00:35 63.3 °F 59 °F 29.89 in Calm     86% 0 in 0.00 W/m2 CLR
00:40 63.1 °F 58.9 °F 29.89 in Calm     86% 0 in 0.00 W/m2 CLR
00:45 63 °F 58.4 °F 29.89 in Calm     85% 0 in 0.00 W/m2 CLR
00:50 62.9 °F 58.3 °F 29.89 in Calm     85% 0 in 0.00 W/m2 CLR
00:55 62.7 °F 58.1 °F 29.90 in Calm     85% 0 in 0.00 W/m2 CLR
01:00 62.6 °F 58.4 °F 29.90 in Calm     86% 0 in 0.00 W/m2 CLR
01:05 62.5 °F 58.3 °F 29.90 in Calm     86% 0 in 0.00 W/m2 CLR
01:10 62.4 °F 58.2 °F 29.90 in Calm     86% 0 in 0.00 W/m2 CLR
01:15 62.3 °F 58.1 °F 29.90 in Calm     86% 0 in 0.00 W/m2 CLR
01:20 62.2 °F 58 °F 29.90 in Calm     86% 0 in 0.00 W/m2 CLR
01:25 62.1 °F 57.9 °F 29.90 in Calm     86% 0 in 0.00 W/m2 CLR
01:30 62 °F 57.8 °F 29.90 in Calm     86% 0 in 0.00 W/m2 CLR
01:35 61.9 °F 57.6 °F 29.89 in Calm     86% 0 in 0.00 W/m2 CLR
01:40 61.7 °F 57.5 °F 29.89 in Calm     86% 0 in 0.00 W/m2 CLR
01:45 61.6 °F 57.4 °F 29.89 in Calm     86% 0 in 0.00 W/m2 CLR
01:50 61.5 °F 57.6 °F 29.89 in Calm     87% 0 in 0.00 W/m2 CLR
01:55 61.5 °F 57.6 °F 29.89 in Calm     87% 0 in 0.00 W/m2 CLR
02:00 61.4 °F 57.5 °F 29.89 in Calm     87% 0 in 0.00 W/m2 CLR
02:05 61.4 °F 57.5 °F 29.89 in Calm     87% 0 in 0.00 W/m2 CLR
02:10 61.3 °F 57.4 °F 29.89 in Calm     87% 0 in 0.00 W/m2 CLR
02:15 61.3 °F 57.4 °F 29.90 in Calm     87% 0 in 0.00 W/m2 CLR
02:20 61.3 °F 57.7 °F 29.90 in Calm     88% 0 in 0.00 W/m2 CLR
02:25 61.3 °F 57.4 °F 29.90 in Calm     87% 0 in 0.00 W/m2 CLR
02:30 61.1 °F 57.5 °F 29.90 in Calm     88% 0 in 0.00 W/m2 CLR
02:35 61 °F 57.4 °F 29.89 in Calm     88% 0 in 0.00 W/m2 CLR
02:40 61 °F 57.4 °F 29.90 in Calm     88% 0 in 0.00 W/m2 CLR
02:45 61 °F 57.4 °F 29.89 in Calm     88% 0 in 0.00 W/m2 CLR
02:50 60.9 °F 57.3 °F 29.89 in Calm     88% 0 in 0.00 W/m2 CLR
02:55 60.8 °F 57.2 °F 29.89 in Calm     88% 0 in 0.00 W/m2 CLR
03:00 60.6 °F 57.1 °F 29.88 in Calm     88% 0 in 0.00 W/m2 CLR
03:05 60.5 °F 56.9 °F 29.88 in Calm     88% 0 in 0.00 W/m2 CLR
03:10 60.4 °F 56.8 °F 29.88 in Calm     88% 0 in 0.00 W/m2 CLR
03:15 60.3 °F 56.7 °F 29.88 in Calm     88% 0 in 0.00 W/m2 CLR
03:20 60.3 °F 56.7 °F 29.88 in Calm     88% 0 in 0.00 W/m2 CLR
03:25 60.2 °F 56.6 °F 29.88 in Calm     88% 0 in 0.00 W/m2 CLR
03:30 60 °F 56.5 °F 29.88 in Calm     88% 0 in 0.00 W/m2 CLR
03:35 59.9 °F 56.6 °F 29.88 in Calm     89% 0 in 0.00 W/m2 CLR
03:40 59.9 °F 56.6 °F 29.88 in Calm     89% 0 in 0.00 W/m2 CLR
03:45 59.8 °F 56.6 °F 29.89 in Calm     89% 0 in 0.00 W/m2 CLR
03:50 59.8 °F 56.6 °F 29.89 in Calm     89% 0 in 0.00 W/m2 CLR
03:55 59.7 °F 56.5 °F 29.89 in Calm     89% 0 in 0.00 W/m2 CLR
04:00 59.6 °F 56.4 °F 29.88 in Calm     89% 0 in 0.00 W/m2 CLR
04:05 59.6 °F 56.4 °F 29.89 in Calm     89% 0 in 0.00 W/m2 CLR
04:10 59.6 °F 56.4 °F 29.89 in Calm     89% 0 in 0.00 W/m2 CLR
04:15 59.6 °F 56.4 °F 29.88 in Calm     89% 0 in 0.00 W/m2 CLR
04:20 59.6 °F 56.4 °F 29.89 in Calm     89% 0 in 0.00 W/m2 CLR
04:25 59.8 °F 56.6 °F 29.89 in Calm     89% 0 in 0.00 W/m2 CLR
04:30 59.8 °F 56.6 °F 29.88 in Calm     89% 0 in 0.00 W/m2 CLR
04:35 59.8 °F 56.6 °F 29.88 in Calm     89% 0 in 0.00 W/m2 CLR
04:40 59.9 °F 56.7 °F 29.88 in Calm     89% 0 in 0.00 W/m2 CLR
04:45 60.1 °F 57.2 °F 29.89 in Calm     90% 0 in 0.00 W/m2 CLR
04:50 60.2 °F 57.3 °F 29.88 in Calm     90% 0 in 0.00 W/m2 CLR
04:55 60.1 °F 57.2 °F 29.88 in Calm     90% 0 in 0.00 W/m2 CLR
05:00 60 °F 57.1 °F 29.88 in Calm     90% 0 in 0.00 W/m2 CLR
05:05 60 °F 57.1 °F 29.88 in Calm     90% 0 in 0.00 W/m2 CLR
05:10 60 °F 57.1 °F 29.88 in Calm     90% 0 in 0.00 W/m2 CLR
05:15 59.9 °F 57 °F 29.88 in Calm     90% 0 in 0.00 W/m2 CLR
05:20 59.8 °F 56.6 °F 29.88 in Calm     89% 0 in 0.00 W/m2 CLR
05:25 59.7 °F 56.8 °F 29.89 in Calm     90% 0 in 0.00 W/m2 CLR
05:30 59.6 °F 56.7 °F 29.89 in Calm     90% 0 in 0.00 W/m2 CLR
05:35 59.5 °F 56.6 °F 29.88 in Calm     90% 0 in 0.00 W/m2 CLR
05:40 59.4 °F 56.5 °F 29.88 in Calm     90% 0 in 0.00 W/m2 CLR
05:45 59.3 °F 56.4 °F 29.89 in Calm     90% 0 in 0.00 W/m2 CLR
05:50 59.3 °F 56.4 °F 29.89 in Calm     90% 0 in 0.00 W/m2 CLR
05:55 59.5 °F 56.6 °F 29.89 in Calm     90% 0 in 0.00 W/m2 CLR
06:00 59.6 °F 56.6 °F 29.89 in Calm     90% 0 in 0.00 W/m2 CLR
06:05 59.5 °F 56.6 °F 29.90 in Calm     90% 0 in 0.00 W/m2 CLR
06:10 59.6 °F 56.7 °F 29.90 in Calm     90% 0 in 0.00 W/m2 CLR
06:15 59.6 °F 56.7 °F 29.90 in Calm     90% 0 in 0.00 W/m2 CLR
06:20 59.6 °F 56.7 °F 29.91 in Calm     90% 0 in 0.00 W/m2 CLR
06:25 59.5 °F 56.6 °F 29.91 in Calm     90% 0 in 0.00 W/m2 CLR
06:30 59.5 °F 56.6 °F 29.92 in Calm     90% 0 in 0.00 W/m2 OVC
06:35 59.5 °F 56.6 °F 29.92 in Calm     90% 0 in 0.00 W/m2 OVC
06:40 59.4 °F 56.5 °F 29.93 in Calm     90% 0 in 0.00 W/m2 OVC
06:45 59.5 °F 56.6 °F 29.94 in Calm     90% 0 in 0.00 W/m2 OVC
06:50 59.6 °F 56.7 °F 29.94 in Calm     90% 0 in 0.00 W/m2 OVC
06:55 59.6 °F 56.7 °F 29.95 in Calm     90% 0 in 0.00 W/m2 OVC
07:00 59.6 °F 56.7 °F 29.96 in Calm     90% 0 in 0.00 W/m2 OVC
07:05 59.6 °F 56.7 °F 29.96 in Calm     90% 0 in 0.00 W/m2 OVC
07:10 59.8 °F 56.9 °F 29.97 in Calm     90% 0 in 0.00 W/m2 OVC
07:15 60 °F 57.1 °F 29.97 in Calm     90% 0 in 0.00 W/m2 OVC
07:20 60.4 °F 57.5 °F 29.97 in Calm     90% 0 in 0.00 W/m2 OVC
07:25 60.6 °F 57.7 °F 29.97 in Calm     90% 0 in 0.00 W/m2 OVC
07:30 60.6 °F 57.7 °F 29.97 in Calm     90% 0 in 0.00 W/m2 OVC
07:35 60.7 °F 57.7 °F 29.97 in Calm     90% 0 in 0.00 W/m2 OVC
07:40 60.8 °F 57.8 °F 29.97 in Calm     90% 0 in 0.00 W/m2 OVC
07:45 60.9 °F 57.9 °F 29.97 in Calm     90% 0 in 0.00 W/m2 OVC
07:50 61 °F 58 °F 29.97 in Calm     90% 0 in 0.00 W/m2 OVC
07:55 61.1 °F 58.1 °F 29.96 in Calm     90% 0 in 0.00 W/m2 OVC
08:00 61.5 °F 58.8 °F 29.96 in Calm     91% 0 in 0.00 W/m2 OVC
08:05 61.7 °F 58.7 °F 29.96 in Calm     90% 0 in 0.00 W/m2 OVC
08:10 62 °F 59 °F 29.96 in Calm     90% 0 in 0.00 W/m2 OVC
08:15 62.3 °F 59.6 °F 29.96 in Calm     91% 0 in 0.00 W/m2 OVC
08:20 62.6 °F 59.6 °F 29.96 in Calm     90% 0 in 0.00 W/m2 OVC
08:25 62.8 °F 60.1 °F 29.96 in Calm     91% 0 in 0.00 W/m2 OVC
08:30 62.9 °F 60.2 °F 29.96 in Calm     91% 0 in 0.00 W/m2 OVC
08:35 63 °F 60 °F 29.96 in Calm     90% 0 in 0.00 W/m2 OVC
08:40 63.2 °F 60.2 °F 29.96 in Calm     90% 0 in 0.00 W/m2 OVC
08:45 63.3 °F 60.6 °F 29.96 in Calm     91% 0 in 0.00 W/m2 OVC
08:50 63.5 °F 60.9 °F 29.96 in Calm     91% 0 in 0.00 W/m2 OVC
08:55 63.8 °F 61.1 °F 29.96 in Calm     91% 0 in 0.00 W/m2 OVC
09:00 63.9 °F 61.2 °F 29.96 in Calm     91% 0 in 0.00 W/m2 OVC
09:05 64.1 °F 61.4 °F 29.96 in Calm     91% 0 in 0.00 W/m2 OVC
09:10 64.3 °F 61.6 °F 29.96 in Calm     91% 0 in 0.00 W/m2 OVC
09:15 64.3 °F 61.3 °F 29.95 in Calm     90% 0 in 0.00 W/m2 OVC
09:20 64.4 °F 61.4 °F 29.95 in Calm   1 mph 90% 0 in 0.00 W/m2 OVC
09:25 64.7 °F 62 °F 29.95 in Calm     91% 0 in 0.00 W/m2 OVC
09:30 64.9 °F 62.2 °F 29.95 in Calm   3 mph 91% 0 in 0.00 W/m2 OVC
09:35 65.1 °F 62.1 °F 29.96 in Calm   1 mph 90% 0 in 0.00 W/m2 OVC
09:40 65.4 °F 62.4 °F 29.96 in WNW 1 mph 2 mph 90% 0 in 0.00 W/m2 OVC
09:45 65.6 °F 62.5 °F 29.95 in Calm   2 mph 90% 0 in 0.00 W/m2 OVC
09:50 65.8 °F 62.8 °F 29.95 in Calm   3 mph 90% 0 in 0.00 W/m2 OVC
09:55 66 °F 63 °F 29.96 in Calm   2 mph 90% 0 in 0.00 W/m2 OVC
10:00 66.4 °F 63.1 °F 29.96 in Calm     89% 0 in 0.00 W/m2 OVC
10:05 66.8 °F 63.1 °F 29.96 in Calm     88% 0 in 0.00 W/m2 OVC
10:10 67.3 °F 63 °F 29.96 in Calm   1 mph 86% 0 in 0.00 W/m2 OVC
10:15 67.9 °F 63.2 °F 29.96 in Calm     85% 0 in 0.00 W/m2 OVC
10:20 68.2 °F 62.9 °F 29.96 in Calm     83% 0 in 0.00 W/m2 OVC
10:25 68.6 °F 62.9 °F 29.96 in Calm     82% 0 in 0.00 W/m2 OVC
10:30 69.1 °F 62.7 °F 29.96 in Calm     80% 0 in 0.00 W/m2 OVC
10:35 69.7 °F 63.3 °F 29.96 in Calm     80% 0 in 0.00 W/m2 OVC
10:40 70.5 °F 63 °F 29.96 in Calm     77% 0 in 0.00 W/m2 OVC
10:45 71 °F 63.1 °F 29.97 in Calm     76% 0 in 0.00 W/m2 OVC
10:50 71.6 °F 62.9 °F 29.96 in Calm     74% 0 in 0.00 W/m2 OVC
10:55 72.7 °F 63.5 °F 29.97 in Calm     73% 0 in 0.00 W/m2 OVC
11:00 73.6 °F 63.2 °F 29.97 in Calm     70% 0 in 0.00 W/m2 OVC
11:05 74.2 °F 62.9 °F 29.97 in Calm     68% 0 in 0.00 W/m2 OVC
11:10 74.7 °F 62.1 °F 29.97 in Calm   3 mph 65% 0 in 0.00 W/m2 OVC
11:15 74.7 °F 62.1 °F 29.97 in Calm   1 mph 65% 0 in 0.00 W/m2 OVC
11:20 74.5 °F 61.5 °F 29.97 in Calm     64% 0 in 0.00 W/m2 OVC
11:25 74.6 °F 61.7 °F 29.97 in Calm   2 mph 64% 0 in 0.00 W/m2 OVC
11:30 74.9 °F 61.9 °F 29.97 in Calm   2 mph 64% 0 in 0.00 W/m2 OVC
11:35 75.2 °F 61.7 °F 29.97 in Calm     63% 0 in 0.00 W/m2 OVC
11:40 75.4 °F 61.5 °F 29.97 in West 1 mph 2 mph 62% 0 in 0.00 W/m2 OVC
11:45 75.6 °F 61.6 °F 29.97 in Calm     62% 0 in 0.00 W/m2 OVC
11:50 75.7 °F 62.2 °F 29.97 in Calm   1 mph 63% 0 in 0.00 W/m2 OVC
11:55 76 °F 61.6 °F 29.97 in Calm     61% 0 in 0.00 W/m2 OVC
12:00 76.1 °F 61.7 °F 29.97 in Calm     61% 0 in 0.00 W/m2 OVC
12:05 76.1 °F 61.2 °F 29.97 in Calm     60% 0 in 0.00 W/m2 OVC
12:10 76.3 °F 62.3 °F 29.96 in Calm     62% 0 in 0.00 W/m2 OVC
12:15 76.6 °F 62.2 °F 29.96 in Calm     61% 0 in 0.00 W/m2 OVC
12:20 76.9 °F 62.5 °F 29.96 in Calm     61% 0 in 0.00 W/m2 OVC
12:25 77.2 °F 61.7 °F 29.96 in Calm     59% 0 in 0.00 W/m2 OVC
12:30 77.3 °F 61.9 °F 29.96 in Calm     59% 0 in 0.00 W/m2 OVC
12:35 77.4 °F 61 °F 29.96 in Calm     57% 0 in 0.00 W/m2 OVC
12:40 77.5 °F 61.6 °F 29.96 in Calm     58% 0 in 0.00 W/m2 OVC
12:45 77.7 °F 62.2 °F 29.96 in Calm   1 mph 59% 0 in 0.00 W/m2 OVC
12:50 78 °F 62.5 °F 29.96 in Calm     59% 0 in 0.00 W/m2 OVC
12:55 78.2 °F 61.2 °F 29.95 in Calm     56% 0 in 0.00 W/m2 OVC
13:00 78.2 °F 61.2 °F 29.95 in Calm     56% 0 in 0.00 W/m2 OVC
13:05 78.2 °F 61.2 °F 29.95 in Calm     56% 0 in 0.00 W/m2 OVC
13:10 78.3 °F 61.8 °F 29.95 in Calm   1 mph 57% 0 in 0.00 W/m2 OVC
13:15 78.5 °F 62 °F 29.95 in Calm     57% 0 in 0.00 W/m2 OVC
13:20 78.7 °F 62.6 °F 29.95 in Calm     58% 0 in 0.00 W/m2 OVC
13:25 78.8 °F 60.7 °F 29.94 in Calm     54% 0 in 0.00 W/m2 OVC
13:30 78.7 °F 60.7 °F 29.94 in Calm     54% 0 in 0.00 W/m2 OVC
13:35 78.8 °F 60.2 °F 29.94 in Calm   1 mph 53% 0 in 0.00 W/m2 OVC
13:40 79.1 °F 61.5 °F 29.94 in Calm     55% 0 in 0.00 W/m2 OVC
13:45 79.4 °F 61.8 °F 29.94 in Calm     55% 0 in 0.00 W/m2 OVC
13:50 79.5 °F 61.4 °F 29.94 in Calm     54% 0 in 0.00 W/m2 OVC
13:55 79.7 °F 62.1 °F 29.93 in Calm     55% 0 in 0.00 W/m2 OVC
14:00 79.8 °F 60.1 °F 29.94 in Calm   1 mph 51% 0 in 0.00 W/m2 OVC
14:05 79.8 °F 59.5 °F 29.93 in Calm     50% 0 in 0.00 W/m2 OVC
14:10 79.9 °F 59 °F 29.93 in Calm   1 mph 49% 0 in 0.00 W/m2 OVC
14:15 80.1 °F 59.2 °F 29.93 in Calm     49% 0 in 0.00 W/m2 OVC
14:20 80.1 °F 59.2 °F 29.93 in Calm   1 mph 49% 0 in 0.00 W/m2 OVC
14:25 80.3 °F 59.9 °F 29.93 in Calm     50% 0 in 0.00 W/m2 OVC
14:30 80.5 °F 60.7 °F 29.93 in Calm     51% 0 in 0.00 W/m2 OVC
14:35 80.6 °F 59.7 °F 29.93 in Calm   1 mph 49% 0 in 0.00 W/m2 OVC
14:40 80.5 °F 60.1 °F 29.93 in Calm     50% 0 in 0.00 W/m2 OVC
14:45 80.5 °F 61.8 °F 29.93 in Calm     53% 0 in 0.00 W/m2 OVC
14:50 80.5 °F 60.7 °F 29.93 in Calm     51% 0 in 0.00 W/m2 OVC
14:55 80.6 °F 61.3 °F 29.93 in Calm     52% 0 in 0.00 W/m2 OVC
15:00 80.9 °F 62.2 °F 29.93 in Calm     53% 0 in 0.00 W/m2 OVC
15:05 81.1 °F 61.8 °F 29.92 in Calm   1 mph 52% 0 in 0.00 W/m2 OVC
15:10 81.4 °F 61.5 °F 29.92 in Calm   1 mph 51% 0 in 0.00 W/m2 OVC
15:15 81.5 °F 59.9 °F 29.92 in Calm     48% 0 in 0.00 W/m2 OVC
15:20 81.6 °F 61.2 °F 29.92 in Calm     50% 0 in 0.00 W/m2 OVC
15:25 81.7 °F 60.7 °F 29.92 in Calm   1 mph 49% 0 in 0.00 W/m2 OVC
15:30 81.9 °F 62 °F 29.92 in Calm     51% 0 in 0.00 W/m2 OVC
15:35 81.9 °F 61.4 °F 29.92 in Calm     50% 0 in 0.00 W/m2 OVC
15:40 81.8 °F 60.2 °F 29.92 in Calm   2 mph 48% 0 in 0.00 W/m2 OVC
15:45 81.8 °F 60.8 °F 29.92 in Calm     49% 0 in 0.00 W/m2 OVC
15:50 81.9 °F 60.8 °F 29.92 in Calm     49% 0 in 0.00 W/m2 OVC
15:55 82 °F 60.9 °F 29.92 in Calm   1 mph 49% 0 in 0.00 W/m2 OVC
16:00 82.3 °F 61.8 °F 29.92 in Calm   1 mph 50% 0 in 0.00 W/m2 OVC
16:05 82.8 °F 61.1 °F 29.92 in Calm     48% 0 in 0.00 W/m2 OVC
16:10 83 °F 60.7 °F 29.92 in Calm     47% 0 in 0.00 W/m2 OVC
16:15 83.5 °F 60.6 °F 29.91 in Calm     46% 0 in 0.00 W/m2 OVC
16:20 83.7 °F 60.7 °F 29.92 in Calm     46% 0 in 0.00 W/m2 OVC
16:25 84.1 °F 59.8 °F 29.92 in Calm   1 mph 44% 0 in 0.00 W/m2 OVC
16:30 84.7 °F 61 °F 29.92 in Calm     45% 0 in 0.00 W/m2 OVC
Coon Rapids Weather